createdAt,value
2018-12-09T00:00:40.875Z,4.73
2018-12-09T00:03:09.772Z,4.33
2018-12-09T00:05:38.570Z,4.40
2018-12-09T00:08:07.389Z,3.93
2018-12-09T00:10:36.206Z,4.07
2018-12-09T00:13:04.962Z,5.27
2018-12-09T00:15:33.761Z,5.27
2018-12-09T00:18:02.446Z,4.60
2018-12-09T00:20:30.965Z,6.62
2018-12-09T00:22:59.853Z,5.23
2018-12-09T00:25:28.529Z,6.47
2018-12-09T00:27:57.077Z,5.17
2018-12-09T00:30:25.710Z,5.13
2018-12-09T00:32:54.382Z,5.13
2018-12-09T00:35:23.056Z,4.77
2018-12-09T00:37:51.792Z,4.90
2018-12-09T00:40:20.503Z,4.60
2018-12-09T00:42:49.331Z,6.50
2018-12-09T00:45:18.106Z,5.47
2018-12-09T00:47:46.734Z,5.90
2018-12-09T00:50:15.465Z,4.07
2018-12-09T00:52:44.389Z,4.43
2018-12-09T00:55:13.146Z,5.43
2018-12-09T00:57:41.723Z,4.77
2018-12-09T01:00:12.997Z,4.83
2018-12-09T01:02:42.996Z,4.70
2018-12-09T01:05:11.970Z,5.37
2018-12-09T01:07:40.735Z,5.53
2018-12-09T01:10:09.439Z,5.65
2018-12-09T01:12:38.248Z,5.80
2018-12-09T01:15:07.210Z,5.90
2018-12-09T01:17:35.997Z,5.07
2018-12-09T01:20:05.948Z,4.33
2018-12-09T01:22:34.674Z,4.80
2018-12-09T01:25:03.315Z,4.67
2018-12-09T01:27:32.055Z,4.03
2018-12-09T01:30:00.674Z,4.87
2018-12-09T01:32:29.661Z,4.50
2018-12-09T01:34:58.464Z,4.50
2018-12-09T01:37:27.081Z,4.93
2018-12-09T01:39:55.989Z,3.27
2018-12-09T01:42:24.559Z,4.37
2018-12-09T01:44:53.137Z,4.10
2018-12-09T01:47:21.699Z,4.20
2018-12-09T01:49:50.726Z,3.80
2018-12-09T01:52:19.390Z,3.57
2018-12-09T01:54:48.254Z,3.20
2018-12-09T01:57:17.077Z,4.00
2018-12-09T01:59:45.720Z,3.97
2018-12-09T02:02:14.260Z,4.00
2018-12-09T02:04:43.138Z,2.97
2018-12-09T02:07:11.782Z,3.77
2018-12-09T02:09:40.504Z,3.73
2018-12-09T02:12:09.264Z,4.03
2018-12-09T02:14:38.035Z,5.47
2018-12-09T02:17:07.204Z,5.07
2018-12-09T02:19:35.968Z,3.80
2018-12-09T02:22:04.599Z,4.23
2018-12-09T02:24:33.184Z,3.90
2018-12-09T02:27:01.807Z,4.20
2018-12-09T02:29:30.460Z,2.93
2018-12-09T02:31:59.193Z,4.43
2018-12-09T02:34:28.035Z,4.07
2018-12-09T02:36:56.676Z,4.13
2018-12-09T02:39:25.316Z,4.30
2018-12-09T02:41:53.907Z,4.43
2018-12-09T02:44:23.307Z,5.17
2018-12-09T02:46:51.821Z,4.93
2018-12-09T02:49:20.617Z,3.80
2018-12-09T02:51:49.158Z,4.73
2018-12-09T02:54:18.079Z,4.60
2018-12-09T02:56:46.870Z,4.03
2018-12-09T02:59:15.426Z,6.10
2018-12-09T03:01:44.227Z,4.93
2018-12-09T03:04:13.195Z,4.73
2018-12-09T03:06:41.946Z,4.47
2018-12-09T03:09:11.112Z,3.70
2018-12-09T03:11:40.062Z,4.03
2018-12-09T03:14:08.851Z,4.80
2018-12-09T03:16:37.541Z,3.77
2018-12-09T03:19:06.322Z,4.67
2018-12-09T03:21:34.847Z,5.00
2018-12-09T03:24:03.624Z,5.37
2018-12-09T03:26:32.316Z,4.77
2018-12-09T03:29:01.212Z,5.17
2018-12-09T03:31:30.137Z,7.47
2018-12-09T03:33:58.946Z,5.20
2018-12-09T03:36:27.519Z,4.57
2018-12-09T03:38:56.098Z,4.50
2018-12-09T03:41:24.978Z,5.27
2018-12-09T03:43:53.555Z,4.00
2018-12-09T03:46:22.384Z,4.60
2018-12-09T03:48:51.066Z,3.80
2018-12-09T03:51:20.302Z,3.63
2018-12-09T03:53:49.078Z,4.47
2018-12-09T03:56:17.659Z,5.43
2018-12-09T03:58:46.223Z,5.00
2018-12-09T04:01:15.027Z,4.70
2018-12-09T04:03:43.948Z,4.20
2018-12-09T04:06:12.605Z,3.83
2018-12-09T04:08:41.422Z,3.70
2018-12-09T04:11:10.094Z,4.23
2018-12-09T04:13:39.149Z,3.77
2018-12-09T04:16:07.674Z,4.50
2018-12-09T04:18:36.354Z,4.50
2018-12-09T04:21:05.133Z,4.07
2018-12-09T04:23:33.934Z,4.30
2018-12-09T04:26:04.035Z,4.83
2018-12-09T04:28:32.670Z,5.67
2018-12-09T04:31:01.441Z,4.17
2018-12-09T04:33:30.038Z,5.67
2018-12-09T04:35:58.689Z,6.10
2018-12-09T04:38:27.464Z,6.10
2018-12-09T04:40:56.178Z,4.60
2018-12-09T04:43:24.773Z,4.50
2018-12-09T04:45:53.476Z,5.00
2018-12-09T04:48:22.464Z,5.10
2018-12-09T04:50:51.104Z,4.63
2018-12-09T04:53:19.630Z,4.17
2018-12-09T04:55:48.405Z,4.53
2018-12-09T04:58:17.073Z,3.80
2018-12-09T05:00:55.063Z,5.07
2018-12-09T05:03:24.050Z,5.73
2018-12-09T05:05:52.744Z,5.10
2018-12-09T05:08:21.288Z,3.47
2018-12-09T05:10:50.219Z,3.67
2018-12-09T05:13:18.949Z,4.00
2018-12-09T05:15:47.540Z,5.57
2018-12-09T05:18:16.248Z,4.07
2018-12-09T05:20:45.288Z,4.47
2018-12-09T05:23:13.904Z,6.57
2018-12-09T05:25:42.557Z,4.30
2018-12-09T05:28:11.346Z,6.05
2018-12-09T05:30:40.020Z,4.90
2018-12-09T05:33:08.873Z,5.23
2018-12-09T05:35:37.613Z,5.73
2018-12-09T05:38:06.127Z,6.23
2018-12-09T05:40:35.188Z,5.83
2018-12-09T05:43:03.977Z,5.13
2018-12-09T05:45:32.496Z,5.10
2018-12-09T05:48:01.177Z,5.27
2018-12-09T05:50:29.865Z,5.47
2018-12-09T05:52:58.474Z,4.43
2018-12-09T05:55:27.286Z,5.37
2018-12-09T05:57:55.894Z,5.67
2018-12-09T06:00:24.428Z,5.30
2018-12-09T06:02:54.929Z,5.65
2018-12-09T06:05:23.703Z,4.47
2018-12-09T06:07:53.076Z,4.53
2018-12-09T06:10:21.888Z,5.10
2018-12-09T06:12:50.472Z,4.43
2018-12-09T06:15:19.118Z,5.37
2018-12-09T06:17:47.780Z,6.20
2018-12-09T06:20:16.499Z,5.00
2018-12-09T06:22:45.218Z,3.47
2018-12-09T06:25:13.898Z,4.63
2018-12-09T06:27:42.495Z,3.77
2018-12-09T06:30:11.924Z,3.60
2018-12-09T06:32:40.552Z,3.47
2018-12-09T06:35:09.764Z,3.57
2018-12-09T06:37:38.280Z,3.90
2018-12-09T06:40:07.093Z,3.43
2018-12-09T06:42:36.259Z,3.60
2018-12-09T06:45:06.116Z,4.00
2018-12-09T06:47:34.753Z,3.10
2018-12-09T06:50:04.461Z,3.67
2018-12-09T06:52:33.128Z,3.23
2018-12-09T06:55:01.637Z,3.47
2018-12-09T06:57:30.209Z,3.47
2018-12-09T06:59:58.925Z,4.33
2018-12-09T07:02:27.586Z,4.27
2018-12-09T07:04:56.373Z,2.97
2018-12-09T07:07:25.107Z,3.77
2018-12-09T07:09:53.764Z,3.30
2018-12-09T07:12:22.513Z,3.57
2018-12-09T07:14:51.027Z,4.43
2018-12-09T07:17:20.079Z,2.30
2018-12-09T07:19:49.105Z,3.37
2018-12-09T07:22:17.788Z,4.30
2018-12-09T07:24:46.646Z,3.73
2018-12-09T07:27:15.350Z,3.00
2018-12-09T07:29:44.038Z,3.27
2018-12-09T07:32:12.618Z,3.50
2018-12-09T07:34:41.308Z,2.90
2018-12-09T07:37:09.909Z,3.10
2018-12-09T07:39:38.599Z,3.27
2018-12-09T07:42:07.452Z,2.47
2018-12-09T07:44:36.167Z,3.17
2018-12-09T07:47:04.757Z,2.63
2018-12-09T07:49:33.556Z,2.53
2018-12-09T07:52:02.286Z,1.93
2018-12-09T07:54:31.065Z,2.40
2018-12-09T07:56:59.704Z,2.20
2018-12-09T07:59:28.237Z,3.10
2018-12-09T08:01:56.942Z,3.00
2018-12-09T08:04:25.714Z,2.12
2018-12-09T08:06:54.373Z,2.53
2018-12-09T08:09:22.898Z,2.27
2018-12-09T08:11:51.577Z,2.90
2018-12-09T08:14:20.289Z,2.10
2018-12-09T08:16:48.920Z,2.70
2018-12-09T08:19:17.657Z,2.07
2018-12-09T08:21:46.448Z,2.07
2018-12-09T08:24:15.213Z,2.43
2018-12-09T08:26:43.814Z,1.93
2018-12-09T08:29:12.524Z,2.30
2018-12-09T08:31:41.295Z,2.73
2018-12-09T08:34:10.396Z,2.47
2018-12-09T08:36:39.105Z,1.93
2018-12-09T08:39:11.256Z,2.07
2018-12-09T08:41:40.047Z,2.27
2018-12-09T08:44:08.584Z,2.40
2018-12-09T08:46:37.412Z,2.50
2018-12-09T08:49:05.996Z,2.33
2018-12-09T08:51:34.693Z,2.00
2018-12-09T08:54:03.349Z,2.40
2018-12-09T08:56:32.073Z,2.80
2018-12-09T08:59:00.981Z,2.37
2018-12-09T09:01:29.711Z,1.57
2018-12-09T09:03:58.461Z,1.63
2018-12-09T09:06:27.056Z,2.00
2018-12-09T09:08:55.690Z,2.23
2018-12-09T09:11:24.364Z,1.50
2018-12-09T09:13:53.186Z,1.50
2018-12-09T09:16:21.966Z,2.50
2018-12-09T09:18:50.673Z,1.70
2018-12-09T09:21:19.305Z,2.00
2018-12-09T09:23:48.176Z,2.10
2018-12-09T09:26:16.827Z,2.37
2018-12-09T09:28:45.489Z,1.70
2018-12-09T09:31:14.190Z,3.17
2018-12-09T09:33:42.869Z,1.93
2018-12-09T09:36:11.522Z,1.63
2018-12-09T09:38:40.405Z,2.40
2018-12-09T09:41:09.107Z,2.27
2018-12-09T09:43:37.727Z,2.77
2018-12-09T09:46:06.275Z,2.20
2018-12-09T09:48:35.044Z,2.20
2018-12-09T09:51:03.731Z,3.00
2018-12-09T09:53:32.473Z,3.63
2018-12-09T09:56:01.150Z,2.43
2018-12-09T09:58:29.837Z,2.93
2018-12-09T10:00:58.524Z,1.63
2018-12-09T10:03:27.283Z,1.83
2018-12-09T10:05:55.977Z,2.17
2018-12-09T10:08:24.662Z,1.43
2018-12-09T10:10:53.366Z,1.63
2018-12-09T10:13:22.199Z,1.30
2018-12-09T10:15:50.789Z,1.40
2018-12-09T10:18:19.430Z,1.40
2018-12-09T10:20:48.174Z,1.33
2018-12-09T10:23:16.911Z,1.50
2018-12-09T10:25:45.808Z,1.37
2018-12-09T10:28:14.474Z,1.23
2018-12-09T10:30:43.209Z,1.10
2018-12-09T10:33:11.957Z,1.00
2018-12-09T10:35:40.732Z,1.27
2018-12-09T10:38:09.533Z,0.90
2018-12-09T10:40:38.232Z,1.30
2018-12-09T10:43:07.248Z,0.93
2018-12-09T10:45:35.924Z,1.00
2018-12-09T10:48:04.894Z,0.87
2018-12-09T10:50:33.654Z,0.80
2018-12-09T10:53:02.381Z,0.97
2018-12-09T10:55:31.102Z,0.70
2018-12-09T10:57:59.835Z,0.70
2018-12-09T11:00:33.705Z,0.73
2018-12-09T11:03:02.538Z,0.70
2018-12-09T11:05:31.327Z,1.10
2018-12-09T11:08:00.084Z,1.00
2018-12-09T11:10:28.888Z,1.37
2018-12-09T11:12:57.559Z,1.47
2018-12-09T11:15:26.486Z,1.20
2018-12-09T11:17:55.447Z,0.80
2018-12-09T11:20:24.362Z,1.20
2018-12-09T11:22:52.973Z,0.73
2018-12-09T11:25:21.828Z,0.93
2018-12-09T11:27:50.735Z,0.77
2018-12-09T11:30:19.305Z,1.30
2018-12-09T11:32:48.114Z,1.00
2018-12-09T11:35:16.879Z,1.00
2018-12-09T11:37:45.488Z,0.70
2018-12-09T11:40:14.368Z,0.90
2018-12-09T11:42:43.281Z,1.23
2018-12-09T11:45:11.995Z,0.60
2018-12-09T11:47:40.844Z,0.57
2018-12-09T11:50:09.974Z,0.80
2018-12-09T11:52:38.721Z,0.60
2018-12-09T11:55:07.730Z,0.80
2018-12-09T11:57:36.297Z,0.87
2018-12-09T12:00:08.680Z,0.50
2018-12-09T12:02:37.272Z,0.80
2018-12-09T12:05:06.927Z,0.83
2018-12-09T12:07:35.734Z,0.90
2018-12-09T12:10:05.280Z,0.90
2018-12-09T12:12:34.233Z,1.00
2018-12-09T12:15:02.933Z,0.93
2018-12-09T12:17:31.525Z,0.90
2018-12-09T12:20:00.238Z,1.00
2018-12-09T12:22:28.850Z,0.90
2018-12-09T12:24:57.473Z,0.70
2018-12-09T12:27:26.145Z,1.00
2018-12-09T12:29:55.064Z,1.00
2018-12-09T12:32:23.737Z,1.10
2018-12-09T12:34:52.416Z,0.93
2018-12-09T12:37:21.436Z,1.27
2018-12-09T12:39:50.112Z,1.43
2018-12-09T12:42:18.689Z,1.27
2018-12-09T12:44:47.381Z,1.30
2018-12-09T12:47:16.166Z,1.20
2018-12-09T12:49:44.914Z,0.80
2018-12-09T12:52:13.896Z,0.83
2018-12-09T12:54:42.620Z,1.47
2018-12-09T12:57:11.389Z,0.97
2018-12-09T12:59:40.135Z,1.53
2018-12-09T13:02:08.971Z,1.13
2018-12-09T13:04:37.695Z,1.20
2018-12-09T13:07:06.693Z,0.93
2018-12-09T13:09:35.376Z,1.27
2018-12-09T13:12:03.937Z,1.30
2018-12-09T13:14:32.678Z,1.40
2018-12-09T13:17:01.350Z,1.60
2018-12-09T13:19:30.140Z,1.03
2018-12-09T13:21:58.971Z,1.23
2018-12-09T13:24:27.990Z,1.23
2018-12-09T13:26:56.883Z,2.23
2018-12-09T13:29:25.546Z,1.33
2018-12-09T13:31:54.363Z,1.77
2018-12-09T13:34:23.340Z,1.20
2018-12-09T13:36:52.229Z,0.97
2018-12-09T13:39:20.953Z,1.30
2018-12-09T13:41:49.665Z,1.50
2018-12-09T13:44:18.517Z,1.47
2018-12-09T13:46:47.496Z,1.10
2018-12-09T13:49:16.345Z,1.10
2018-12-09T13:51:45.184Z,1.20
2018-12-09T13:54:13.953Z,1.60
2018-12-09T13:56:42.521Z,1.83
2018-12-09T13:59:11.240Z,1.20
2018-12-09T14:01:39.898Z,1.10
2018-12-09T14:04:08.819Z,1.40
2018-12-09T14:06:37.522Z,1.07
2018-12-09T14:09:07.748Z,0.93
2018-12-09T14:11:36.572Z,0.97
2018-12-09T14:14:05.307Z,1.40
2018-12-09T14:16:34.039Z,0.90
2018-12-09T14:19:02.746Z,0.90
2018-12-09T14:21:31.658Z,0.93
2018-12-09T14:24:00.269Z,1.27
2018-12-09T14:26:29.144Z,1.07
2018-12-09T14:28:58.904Z,1.30
2018-12-09T14:31:29.621Z,1.20
2018-12-09T14:33:58.280Z,1.20
2018-12-09T14:36:26.901Z,1.20
2018-12-09T14:38:55.877Z,1.27
2018-12-09T14:41:24.874Z,1.63
2018-12-09T14:43:53.650Z,1.40
2018-12-09T14:46:22.593Z,1.27
2018-12-09T14:48:51.379Z,2.17
2018-12-09T14:51:20.094Z,1.20
2018-12-09T14:53:48.737Z,1.37
2018-12-09T14:56:17.570Z,0.97
2018-12-09T14:58:46.228Z,0.97
2018-12-09T15:01:15.160Z,1.00
2018-12-09T15:03:43.825Z,3.20
2018-12-09T15:06:12.439Z,1.20
2018-12-09T15:08:41.237Z,1.77
2018-12-09T15:11:09.815Z,0.90
2018-12-09T15:13:38.448Z,1.33
2018-12-09T15:16:07.304Z,1.43
2018-12-09T15:18:36.236Z,1.20
2018-12-09T15:21:04.773Z,1.30
2018-12-09T15:23:33.380Z,1.60
2018-12-09T15:26:02.220Z,1.50
2018-12-09T15:28:31.053Z,1.30
2018-12-09T15:30:59.773Z,1.30
2018-12-09T15:33:28.423Z,1.03
2018-12-09T15:35:57.255Z,1.30
2018-12-09T15:38:26.037Z,1.47
2018-12-09T15:40:55.160Z,1.13
2018-12-09T15:43:23.865Z,1.33
2018-12-09T15:45:52.440Z,1.30
2018-12-09T15:48:21.299Z,1.50
2018-12-09T15:50:50.315Z,1.13
2018-12-09T15:53:19.102Z,1.10
2018-12-09T15:55:47.789Z,1.27
2018-12-09T15:58:16.586Z,1.40
2018-12-09T16:00:50.513Z,1.40
2018-12-09T16:03:19.290Z,1.20
2018-12-09T16:05:48.190Z,1.30
2018-12-09T16:08:16.921Z,1.83
2018-12-09T16:10:45.741Z,1.00
2018-12-09T16:13:14.411Z,1.20
2018-12-09T16:15:43.169Z,1.40
2018-12-09T16:18:11.892Z,1.33
2018-12-09T16:20:40.851Z,1.30
2018-12-09T16:23:09.797Z,1.20
2018-12-09T16:25:38.668Z,1.30
2018-12-09T16:28:07.476Z,1.60
2018-12-09T16:30:36.262Z,2.00
2018-12-09T16:33:05.137Z,1.53
2018-12-09T16:35:33.933Z,1.80
2018-12-09T16:38:02.628Z,1.50
2018-12-09T16:40:31.385Z,1.13
2018-12-09T16:43:00.095Z,2.00
2018-12-09T16:45:28.703Z,2.27
2018-12-09T16:47:57.399Z,1.73
2018-12-09T16:50:26.329Z,1.40
2018-12-09T16:52:55.107Z,2.10
2018-12-09T16:55:23.794Z,1.43
2018-12-09T16:57:52.503Z,1.80
2018-12-09T17:00:21.264Z,1.70
2018-12-09T17:02:49.936Z,1.67
2018-12-09T17:05:18.742Z,1.60
2018-12-09T17:07:47.482Z,2.10
2018-12-09T17:10:16.185Z,1.70
2018-12-09T17:12:45.174Z,1.80
2018-12-09T17:15:13.905Z,1.43
2018-12-09T17:17:42.663Z,1.40
2018-12-09T17:20:11.329Z,1.80
2018-12-09T17:22:40.020Z,1.50
2018-12-09T17:25:08.745Z,2.23
2018-12-09T17:27:37.463Z,2.00
2018-12-09T17:30:07.096Z,1.57
2018-12-09T17:32:35.925Z,1.70
2018-12-09T17:35:04.968Z,2.00
2018-12-09T17:37:33.630Z,2.00
2018-12-09T17:40:02.220Z,2.03
2018-12-09T17:42:31.030Z,2.20
2018-12-09T17:44:59.800Z,2.30
2018-12-09T17:47:28.423Z,2.43
2018-12-09T17:49:57.110Z,2.13
2018-12-09T17:52:25.725Z,2.70
2018-12-09T17:54:54.305Z,2.93
2018-12-09T17:57:22.982Z,2.50
2018-12-09T17:59:51.705Z,3.00
2018-12-09T18:02:20.718Z,4.40
2018-12-09T18:04:49.485Z,3.67
2018-12-09T18:07:18.298Z,4.97
2018-12-09T18:09:46.981Z,3.67
2018-12-09T18:12:15.801Z,3.00
2018-12-09T18:14:44.423Z,4.00
2018-12-09T18:17:13.241Z,3.43
2018-12-09T18:19:41.943Z,3.00
2018-12-09T18:22:10.897Z,3.13
2018-12-09T18:24:39.587Z,3.33
2018-12-09T18:27:08.321Z,2.77
2018-12-09T18:29:37.118Z,2.47
2018-12-09T18:32:06.095Z,3.17
2018-12-09T18:34:34.838Z,3.27
2018-12-09T18:37:03.690Z,3.03
2018-12-09T18:39:32.652Z,2.77
2018-12-09T18:42:01.596Z,3.33
2018-12-09T18:44:30.566Z,3.37
2018-12-09T18:46:59.325Z,2.17
2018-12-09T18:49:28.212Z,2.70
2018-12-09T18:51:57.223Z,2.77
2018-12-09T18:54:25.913Z,1.90
2018-12-09T18:56:54.988Z,2.80
2018-12-09T18:59:23.674Z,2.67
2018-12-09T19:01:52.700Z,2.17
2018-12-09T19:04:21.531Z,2.03
2018-12-09T19:06:50.244Z,2.13
2018-12-09T19:09:19.014Z,2.30
2018-12-09T19:11:47.861Z,2.52
2018-12-09T19:14:16.464Z,2.80
2018-12-09T19:16:45.311Z,2.53
2018-12-09T19:19:14.377Z,2.43
2018-12-09T19:21:43.003Z,2.40
2018-12-09T19:24:11.989Z,2.30
2018-12-09T19:26:40.971Z,2.90
2018-12-09T19:29:09.781Z,2.80
2018-12-09T19:31:38.572Z,3.00
2018-12-09T19:34:07.445Z,2.43
2018-12-09T19:36:36.132Z,3.77
2018-12-09T19:39:07.567Z,3.87
2018-12-09T19:41:36.462Z,4.10
2018-12-09T19:44:05.285Z,4.67
2018-12-09T19:46:34.083Z,4.50
2018-12-09T19:49:03.037Z,4.10
2018-12-09T19:51:32.026Z,3.20
2018-12-09T19:54:00.732Z,4.17
2018-12-09T19:56:29.591Z,3.30
2018-12-09T19:58:58.249Z,2.60
2018-12-09T20:01:27.195Z,3.23
2018-12-09T20:03:56.072Z,2.77
2018-12-09T20:06:24.715Z,3.43
2018-12-09T20:08:53.389Z,5.87
2018-12-09T20:11:22.143Z,6.40
2018-12-09T20:13:50.921Z,4.27
2018-12-09T20:16:19.823Z,3.60
2018-12-09T20:18:48.993Z,3.43
2018-12-09T20:21:17.681Z,3.20
2018-12-09T20:23:46.691Z,3.57
2018-12-09T20:26:15.715Z,2.83
2018-12-09T20:28:44.446Z,2.97
2018-12-09T20:31:13.241Z,2.93
2018-12-09T20:33:42.296Z,3.17
2018-12-09T20:36:11.069Z,3.00
2018-12-09T20:38:39.699Z,2.93
2018-12-09T20:41:08.735Z,3.50
2018-12-09T20:43:37.637Z,3.97
2018-12-09T20:46:06.405Z,5.20
2018-12-09T20:48:35.010Z,5.60
2018-12-09T20:51:03.897Z,3.40
2018-12-09T20:53:32.836Z,4.43
2018-12-09T20:56:01.666Z,3.40
2018-12-09T20:58:30.569Z,3.30
2018-12-09T21:00:59.375Z,4.00
2018-12-09T21:03:28.231Z,3.43
2018-12-09T21:05:57.134Z,4.53
2018-12-09T21:08:25.850Z,3.47
2018-12-09T21:10:54.562Z,3.30
2018-12-09T21:13:23.265Z,3.33
2018-12-09T21:15:52.095Z,2.77
2018-12-09T21:18:20.654Z,3.37
2018-12-09T21:20:49.477Z,4.03
2018-12-09T21:23:18.329Z,2.70
2018-12-09T21:25:47.032Z,2.97
2018-12-09T21:28:15.797Z,3.55
2018-12-09T21:30:44.551Z,2.90
2018-12-09T21:33:13.372Z,4.08
2018-12-09T21:35:42.328Z,3.33
2018-12-09T21:38:11.084Z,2.73
2018-12-09T21:40:40.064Z,3.13
2018-12-09T21:43:08.843Z,2.37
2018-12-09T21:45:37.613Z,2.80
2018-12-09T21:48:06.319Z,2.43
2018-12-09T21:50:35.125Z,2.70
2018-12-09T21:53:04.023Z,2.73
2018-12-09T21:55:32.752Z,2.27
2018-12-09T21:58:01.478Z,2.80
2018-12-09T22:00:30.163Z,2.77
2018-12-09T22:02:58.861Z,2.30
2018-12-09T22:05:27.537Z,2.33
2018-12-09T22:07:56.230Z,2.70
2018-12-09T22:10:25.117Z,2.63
2018-12-09T22:12:54.329Z,2.57
2018-12-09T22:15:23.199Z,2.10
2018-12-09T22:17:52.413Z,2.33
2018-12-09T22:20:21.653Z,2.10
2018-12-09T22:22:50.529Z,2.20
2018-12-09T22:25:19.493Z,1.53
2018-12-09T22:27:48.352Z,1.70
2018-12-09T22:30:17.149Z,1.57
2018-12-09T22:32:46.006Z,1.80
2018-12-09T22:35:14.641Z,1.93
2018-12-09T22:37:43.431Z,2.73
2018-12-09T22:40:12.245Z,2.00
2018-12-09T22:42:40.883Z,1.93
2018-12-09T22:45:09.721Z,1.80
2018-12-09T22:47:38.274Z,1.73
2018-12-09T22:50:07.527Z,2.33
2018-12-09T22:52:36.391Z,1.60
2018-12-09T22:55:05.893Z,2.10
2018-12-09T22:57:35.859Z,1.97
2018-12-09T23:00:10.373Z,2.20
2018-12-09T23:02:44.386Z,1.97
2018-12-09T23:05:13.311Z,2.50
2018-12-09T23:07:47.390Z,2.30
2018-12-09T23:10:16.212Z,1.87
2018-12-09T23:12:45.236Z,2.07
2018-12-09T23:15:14.388Z,1.80
2018-12-09T23:17:43.401Z,1.70
2018-12-09T23:20:12.220Z,1.80
2018-12-09T23:22:40.826Z,1.83
2018-12-09T23:25:09.782Z,2.17
2018-12-09T23:27:38.640Z,1.90
2018-12-09T23:30:09.124Z,2.70
2018-12-09T23:32:38.158Z,2.53
2018-12-09T23:35:08.330Z,2.40
2018-12-09T23:37:37.299Z,2.33
2018-12-09T23:40:07.839Z,2.13
2018-12-09T23:42:36.439Z,2.07
2018-12-09T23:45:06.217Z,2.30
2018-12-09T23:47:34.953Z,2.13
2018-12-09T23:50:04.217Z,2.27
2018-12-09T23:52:32.824Z,2.40
2018-12-09T23:55:01.968Z,2.60
2018-12-09T23:57:30.750Z,2.40
2018-12-09T23:59:59.562Z,2.93
